createdAt,value
2022-11-05T00:00:27.799Z,1007.88
2022-11-05T00:02:21.276Z,1007.89
2022-11-05T00:03:21.021Z,1007.90
2022-11-05T00:05:24.966Z,1007.92
2022-11-05T00:06:24.990Z,1007.91
2022-11-05T00:08:29.972Z,1007.91
2022-11-05T00:09:29.005Z,1007.90
2022-11-05T00:11:33.012Z,1007.90
2022-11-05T00:12:33.022Z,1007.85
2022-11-05T00:14:37.508Z,1007.91
2022-11-05T00:15:37.042Z,1007.93
2022-11-05T00:17:41.042Z,1007.99
2022-11-05T00:18:41.052Z,1008.02
2022-11-05T00:20:34.529Z,1008.03
2022-11-05T00:21:34.003Z,1008.05
2022-11-05T00:23:38.015Z,1008.09
2022-11-05T00:24:38.029Z,1008.05
2022-11-05T00:26:42.515Z,1008.03
2022-11-05T00:27:42.054Z,1008.06
2022-11-05T00:29:46.069Z,1008.09
2022-11-05T00:30:46.069Z,1008.10
2022-11-05T00:32:50.565Z,1008.10
2022-11-05T00:33:50.110Z,1008.13
2022-11-05T00:35:54.122Z,1008.13
2022-11-05T00:36:54.138Z,1008.10
2022-11-05T00:38:58.618Z,1008.11
2022-11-05T00:39:58.145Z,1008.14
2022-11-05T00:42:02.155Z,1008.19
2022-11-05T00:43:02.164Z,1008.24
2022-11-05T00:45:06.655Z,1008.25
2022-11-05T00:46:06.193Z,1008.25
2022-11-05T00:48:10.209Z,1008.25
2022-11-05T00:49:10.219Z,1008.26
2022-11-05T00:51:03.691Z,1008.27
2022-11-05T00:52:03.186Z,1008.30
2022-11-05T00:54:07.204Z,1008.32
2022-11-05T00:55:07.223Z,1008.35
2022-11-05T00:57:11.713Z,1008.34
2022-11-05T00:58:11.235Z,1008.33
2022-11-05T01:00:15.279Z,1008.35
2022-11-05T01:01:15.347Z,1008.37
2022-11-05T01:03:19.751Z,1008.41
2022-11-05T01:04:19.288Z,1008.42
2022-11-05T01:08:06.663Z,1008.47
2022-11-05T01:09:06.672Z,1008.50
2022-11-05T01:11:00.821Z,1008.51
2022-11-05T01:11:59.614Z,1008.49
2022-11-05T01:13:52.740Z,1008.50
2022-11-05T01:14:52.754Z,1008.44
2022-11-05T01:16:57.238Z,1008.49
2022-11-05T01:17:56.769Z,1008.45
2022-11-05T01:20:00.771Z,1008.49
2022-11-05T01:22:25.265Z,1008.51
2022-11-05T01:23:24.782Z,1008.54
2022-11-05T01:25:28.796Z,1008.54
2022-11-05T01:26:28.811Z,1008.53
2022-11-05T01:28:33.339Z,1008.55
2022-11-05T01:29:32.818Z,1008.55
2022-11-05T01:31:36.835Z,1008.53
2022-11-05T01:32:36.881Z,1008.51
2022-11-05T01:34:41.329Z,1008.63
2022-11-05T01:35:40.857Z,1008.64
2022-11-05T01:37:44.870Z,1008.69
2022-11-05T01:38:44.882Z,1008.67
2022-11-05T01:40:38.355Z,1008.70
2022-11-05T01:41:37.818Z,1008.73
2022-11-05T01:43:41.825Z,1008.70
2022-11-05T01:44:41.851Z,1008.71
2022-11-05T01:46:46.320Z,1008.69
2022-11-05T01:47:45.843Z,1008.69
2022-11-05T01:49:49.857Z,1008.67
2022-11-05T01:50:49.873Z,1008.66
2022-11-05T01:52:54.375Z,1008.70
2022-11-05T01:53:53.893Z,1008.69
2022-11-05T01:55:57.912Z,1008.73
2022-11-05T01:56:57.922Z,1008.68
2022-11-05T01:59:02.417Z,1008.68
2022-11-05T02:00:01.941Z,1008.67
2022-11-05T02:02:06.099Z,1008.70
2022-11-05T02:03:06.024Z,1008.68
2022-11-05T02:05:10.447Z,1008.64
2022-11-05T02:06:10.121Z,1008.66
2022-11-05T02:08:13.989Z,1008.69
2022-11-05T02:09:13.998Z,1008.71
2022-11-05T02:11:07.471Z,1008.76
2022-11-05T02:12:06.937Z,1008.82
2022-11-05T02:14:10.948Z,1008.82
2022-11-05T02:15:10.955Z,1008.80
2022-11-05T02:17:04.427Z,1008.82
2022-11-05T02:18:04.093Z,1008.82
2022-11-05T02:20:08.109Z,1008.85
2022-11-05T02:21:08.113Z,1008.86
2022-11-05T02:23:12.992Z,1008.84
2022-11-05T02:24:12.129Z,1008.85
2022-11-05T02:26:16.143Z,1008.88
2022-11-05T02:27:16.145Z,1008.86
2022-11-05T02:29:09.620Z,1008.86
2022-11-05T02:30:16.451Z,1008.88
2022-11-05T02:32:13.284Z,1008.85
2022-11-05T02:33:13.626Z,1008.89
2022-11-05T02:35:17.776Z,1008.87
2022-11-05T02:36:17.314Z,1008.92
2022-11-05T02:38:21.821Z,1008.93
2022-11-05T02:39:21.821Z,1008.92
2022-11-05T02:40:21.841Z,1008.96
2022-11-05T02:41:21.864Z,1008.96
2022-11-05T02:42:21.884Z,1008.96
2022-11-05T02:43:21.901Z,1008.93
2022-11-05T02:44:21.918Z,1008.97
2022-11-05T02:45:21.939Z,1008.95
2022-11-05T02:46:21.959Z,1008.92
2022-11-05T02:47:21.979Z,1008.94
2022-11-05T02:48:21.995Z,1008.94
2022-11-05T02:49:22.021Z,1008.94
2022-11-05T02:50:22.038Z,1008.98
2022-11-05T02:51:22.056Z,1008.95
2022-11-05T02:52:22.078Z,1008.93
2022-11-05T02:53:22.093Z,1008.97
2022-11-05T02:54:22.116Z,1008.97
2022-11-05T02:55:22.150Z,1008.97
2022-11-05T02:56:22.154Z,1008.97
2022-11-05T02:57:22.177Z,1009.02
2022-11-05T02:58:22.192Z,1008.99
2022-11-05T02:59:22.212Z,1009.02
2022-11-05T03:00:22.239Z,1009.01
2022-11-05T03:01:22.386Z,1009.01
2022-11-05T03:02:22.420Z,1009.02
2022-11-05T03:03:22.300Z,1009.00
2022-11-05T03:04:22.308Z,1009.01
2022-11-05T03:05:22.334Z,1009.03
2022-11-05T03:06:22.348Z,1009.04
2022-11-05T03:07:22.372Z,1009.06
2022-11-05T03:08:22.389Z,1009.03
2022-11-05T03:09:22.409Z,1009.04
2022-11-05T03:10:22.427Z,1009.10
2022-11-05T03:11:22.447Z,1009.09
2022-11-05T03:12:22.467Z,1009.09
2022-11-05T03:13:22.491Z,1009.10
2022-11-05T03:14:22.511Z,1009.12
2022-11-05T03:15:22.530Z,1009.13
2022-11-05T03:16:22.547Z,1009.20
2022-11-05T03:17:22.568Z,1009.19
2022-11-05T03:18:22.586Z,1009.18
2022-11-05T03:19:22.605Z,1009.17
2022-11-05T03:20:22.627Z,1009.21
2022-11-05T03:21:22.646Z,1009.27
2022-11-05T03:22:22.664Z,1009.24
2022-11-05T03:23:22.681Z,1009.25
2022-11-05T03:24:22.705Z,1009.25
2022-11-05T03:25:22.723Z,1009.24
2022-11-05T03:26:22.745Z,1009.29
2022-11-05T03:27:22.762Z,1009.31
2022-11-05T03:28:22.778Z,1009.28
2022-11-05T03:29:22.803Z,1009.30
2022-11-05T03:30:22.841Z,1009.30
2022-11-05T03:31:22.843Z,1009.29
2022-11-05T03:32:22.862Z,1009.31
2022-11-05T03:33:22.900Z,1009.34
2022-11-05T03:34:22.901Z,1009.33
2022-11-05T03:35:22.923Z,1009.34
2022-11-05T03:36:22.942Z,1009.31
2022-11-05T03:37:22.961Z,1009.32
2022-11-05T03:38:22.981Z,1009.31
2022-11-05T03:39:23.000Z,1009.34
2022-11-05T03:40:23.025Z,1009.35
2022-11-05T03:41:23.039Z,1009.37
2022-11-05T03:42:23.057Z,1009.35
2022-11-05T03:43:23.078Z,1009.39
2022-11-05T03:44:23.100Z,1009.36
2022-11-05T03:45:23.117Z,1009.37
2022-11-05T03:46:23.137Z,1009.36
2022-11-05T03:47:23.159Z,1009.36
2022-11-05T03:48:23.248Z,1009.36
2022-11-05T03:49:23.202Z,1009.36
2022-11-05T03:50:23.214Z,1009.37
2022-11-05T03:51:23.237Z,1009.36
2022-11-05T03:52:23.258Z,1009.39
2022-11-05T03:53:23.278Z,1009.36
2022-11-05T03:54:23.300Z,1009.40
2022-11-05T03:55:23.320Z,1009.44
2022-11-05T03:56:23.350Z,1009.43
2022-11-05T03:57:23.357Z,1009.40
2022-11-05T03:58:23.384Z,1009.42
2022-11-05T03:59:23.406Z,1009.44
2022-11-05T04:00:23.429Z,1009.42
2022-11-05T04:01:23.521Z,1009.44
2022-11-05T04:02:23.603Z,1009.41
2022-11-05T04:03:23.474Z,1009.43
2022-11-05T04:04:23.498Z,1009.48
2022-11-05T04:05:23.523Z,1009.45
2022-11-05T04:06:23.538Z,1009.45
2022-11-05T04:07:23.559Z,1009.46
2022-11-05T04:08:23.583Z,1009.46
2022-11-05T04:09:23.595Z,1009.46
2022-11-05T04:10:23.618Z,1009.46
2022-11-05T04:11:23.639Z,1009.47
2022-11-05T04:12:23.662Z,1009.51
2022-11-05T04:13:23.676Z,1009.48
2022-11-05T04:14:23.700Z,1009.49
2022-11-05T04:15:23.717Z,1009.49
2022-11-05T04:16:23.744Z,1009.52
2022-11-05T04:17:23.760Z,1009.50
2022-11-05T04:18:23.778Z,1009.56
2022-11-05T04:19:26.223Z,1009.52
2022-11-05T04:20:23.819Z,1009.54
2022-11-05T04:21:23.839Z,1009.49
2022-11-05T04:22:23.858Z,1009.54
2022-11-05T04:23:23.884Z,1009.55
2022-11-05T04:24:23.897Z,1009.53
2022-11-05T04:25:23.922Z,1009.55
2022-11-05T04:26:23.949Z,1009.52
2022-11-05T04:27:23.961Z,1009.55
2022-11-05T04:28:23.979Z,1009.56
2022-11-05T04:29:23.996Z,1009.55
2022-11-05T04:30:24.021Z,1009.53
2022-11-05T04:31:24.039Z,1009.52
2022-11-05T04:32:24.059Z,1009.53
2022-11-05T04:33:24.083Z,1009.57
2022-11-05T04:34:24.101Z,1009.55
2022-11-05T04:35:24.119Z,1009.53
2022-11-05T04:36:24.141Z,1009.56
2022-11-05T04:37:24.159Z,1009.59
2022-11-05T04:38:24.181Z,1009.56
2022-11-05T04:39:24.202Z,1009.50
2022-11-05T04:40:24.217Z,1009.57
2022-11-05T04:41:24.240Z,1009.55
2022-11-05T04:42:24.256Z,1009.57
2022-11-05T04:43:24.279Z,1009.62
2022-11-05T04:44:24.297Z,1009.65
2022-11-05T04:45:24.323Z,1009.65
2022-11-05T04:46:24.420Z,1009.67
2022-11-05T04:47:24.363Z,1009.65
2022-11-05T04:48:24.384Z,1009.70
2022-11-05T04:49:24.399Z,1009.65
2022-11-05T04:50:24.421Z,1009.66
2022-11-05T04:51:24.439Z,1009.65
2022-11-05T04:52:24.457Z,1009.64
2022-11-05T04:53:24.479Z,1009.64
2022-11-05T04:54:24.499Z,1009.68
2022-11-05T04:55:24.518Z,1009.71
2022-11-05T04:56:24.542Z,1009.67
2022-11-05T04:57:24.562Z,1009.71
2022-11-05T04:58:24.580Z,1009.72
2022-11-05T04:59:24.603Z,1009.68
2022-11-05T05:00:24.632Z,1009.67
2022-11-05T05:01:24.714Z,1009.68
2022-11-05T05:02:24.665Z,1009.71
2022-11-05T05:03:24.686Z,1009.70
2022-11-05T05:04:24.699Z,1009.68
2022-11-05T05:05:24.726Z,1009.72
2022-11-05T05:06:24.744Z,1009.75
2022-11-05T05:07:24.774Z,1009.76
2022-11-05T05:08:24.787Z,1009.77
2022-11-05T05:09:24.796Z,1009.78
2022-11-05T05:10:24.821Z,1009.79
2022-11-05T05:11:24.837Z,1009.79
2022-11-05T05:12:24.859Z,1009.81
2022-11-05T05:13:24.881Z,1009.82
2022-11-05T05:14:24.901Z,1009.86
2022-11-05T05:15:24.921Z,1009.89
2022-11-05T05:16:24.953Z,1009.90
2022-11-05T05:17:24.960Z,1009.93
2022-11-05T05:18:25.040Z,1009.92
2022-11-05T05:19:24.998Z,1009.96
2022-11-05T05:20:25.011Z,1009.98
2022-11-05T05:21:25.037Z,1009.97
2022-11-05T05:22:25.075Z,1009.98
2022-11-05T05:23:25.078Z,1009.95
2022-11-05T05:24:25.147Z,1009.96
2022-11-05T05:25:25.117Z,1009.92
2022-11-05T05:26:25.137Z,1009.91
2022-11-05T05:27:25.157Z,1009.93
2022-11-05T05:28:25.176Z,1009.88
2022-11-05T05:29:25.195Z,1009.88
2022-11-05T05:30:25.216Z,1009.87
2022-11-05T05:31:25.241Z,1009.90
2022-11-05T05:32:25.267Z,1009.90
2022-11-05T05:33:25.279Z,1009.91
2022-11-05T05:34:25.302Z,1009.95
2022-11-05T05:35:25.315Z,1009.96
2022-11-05T05:36:25.335Z,1009.96
2022-11-05T05:37:25.357Z,1009.94
2022-11-05T05:38:25.375Z,1010.01
2022-11-05T05:39:25.397Z,1010.04
2022-11-05T05:40:25.416Z,1010.03
2022-11-05T05:41:25.436Z,1010.06
2022-11-05T05:42:25.457Z,1010.08
2022-11-05T05:43:25.477Z,1010.06
2022-11-05T05:44:25.495Z,1010.08
2022-11-05T05:45:25.513Z,1010.06
2022-11-05T05:46:25.535Z,1010.07
2022-11-05T05:47:25.556Z,1010.04
2022-11-05T05:48:25.576Z,1010.04
2022-11-05T05:49:25.596Z,1010.04
2022-11-05T05:50:25.620Z,1010.00
2022-11-05T05:51:25.637Z,1010.02
2022-11-05T05:52:25.658Z,1010.05
2022-11-05T05:53:25.672Z,1010.06
2022-11-05T05:54:31.754Z,1010.04
2022-11-05T05:55:25.713Z,1010.05
2022-11-05T05:56:25.735Z,1010.08
2022-11-05T05:57:25.750Z,1010.10
2022-11-05T05:58:25.771Z,1010.08
2022-11-05T05:59:25.792Z,1010.12
2022-11-05T06:00:25.808Z,1010.17
2022-11-05T06:01:25.880Z,1010.16
2022-11-05T06:02:26.076Z,1010.19
2022-11-05T06:03:25.872Z,1010.21
2022-11-05T06:04:25.892Z,1010.21
2022-11-05T06:05:25.913Z,1010.22
2022-11-05T06:06:25.933Z,1010.24
2022-11-05T06:07:25.951Z,1010.25
2022-11-05T06:08:25.973Z,1010.23
2022-11-05T06:09:25.992Z,1010.27
2022-11-05T06:10:26.064Z,1010.26
2022-11-05T06:11:26.031Z,1010.25
2022-11-05T06:12:26.053Z,1010.28
2022-11-05T06:13:26.070Z,1010.35
2022-11-05T06:14:26.091Z,1010.33
2022-11-05T06:15:26.113Z,1010.38
2022-11-05T06:16:26.132Z,1010.37
2022-11-05T06:17:26.149Z,1010.40
2022-11-05T06:18:26.169Z,1010.39
2022-11-05T06:19:26.188Z,1010.43
2022-11-05T06:20:26.206Z,1010.43
2022-11-05T06:21:26.226Z,1010.44
2022-11-05T06:22:26.429Z,1010.46
2022-11-05T06:23:26.270Z,1010.52
2022-11-05T06:24:26.289Z,1010.49
2022-11-05T06:25:26.308Z,1010.53
2022-11-05T06:26:26.329Z,1010.50
2022-11-05T06:27:26.350Z,1010.55
2022-11-05T06:28:26.369Z,1010.56
2022-11-05T06:29:26.388Z,1010.51
2022-11-05T06:30:26.408Z,1010.55
2022-11-05T06:31:26.431Z,1010.55
2022-11-05T06:32:26.446Z,1010.56
2022-11-05T06:33:26.467Z,1010.57
2022-11-05T06:34:26.484Z,1010.64
2022-11-05T06:35:26.506Z,1010.63
2022-11-05T06:36:26.524Z,1010.64
2022-11-05T06:37:26.590Z,1010.62
2022-11-05T06:38:26.578Z,1010.67
2022-11-05T06:39:26.599Z,1010.69
2022-11-05T06:40:26.602Z,1010.68
2022-11-05T06:41:26.623Z,1010.73
2022-11-05T06:42:26.639Z,1010.71
2022-11-05T06:43:26.664Z,1010.72
2022-11-05T06:44:26.685Z,1010.69
2022-11-05T06:45:26.709Z,1010.69
2022-11-05T06:46:26.729Z,1010.67
2022-11-05T06:47:26.739Z,1010.74
2022-11-05T06:48:26.768Z,1010.71
2022-11-05T06:49:26.779Z,1010.75
2022-11-05T06:50:26.803Z,1010.80
2022-11-05T06:51:26.820Z,1010.80
2022-11-05T06:52:26.837Z,1010.86
2022-11-05T06:53:26.866Z,1010.87
2022-11-05T06:54:26.878Z,1010.88
2022-11-05T06:55:26.897Z,1010.91
2022-11-05T06:56:26.919Z,1010.88
2022-11-05T06:57:26.936Z,1010.91
2022-11-05T06:58:26.956Z,1010.93
2022-11-05T06:59:27.185Z,1010.93
2022-11-05T07:00:26.995Z,1010.93
2022-11-05T07:01:27.196Z,1010.93
2022-11-05T07:02:27.147Z,1010.96
2022-11-05T07:03:27.056Z,1010.94
2022-11-05T07:04:27.074Z,1010.92
2022-11-05T07:05:27.095Z,1010.92
2022-11-05T07:06:27.115Z,1010.95
2022-11-05T07:07:27.134Z,1010.93
2022-11-05T07:08:27.159Z,1010.92
2022-11-05T07:09:27.174Z,1010.93
2022-11-05T07:10:27.193Z,1010.99
2022-11-05T07:11:27.214Z,1010.95
2022-11-05T07:12:27.230Z,1010.99
2022-11-05T07:13:27.251Z,1011.03
2022-11-05T07:14:27.273Z,1011.03
2022-11-05T07:15:27.285Z,1011.00
2022-11-05T07:16:27.313Z,1011.03
2022-11-05T07:17:27.326Z,1011.04
2022-11-05T07:18:27.347Z,1011.02
2022-11-05T07:19:27.369Z,1011.07
2022-11-05T07:20:33.256Z,1011.11
2022-11-05T07:21:27.407Z,1011.08
2022-11-05T07:22:27.425Z,1011.08
2022-11-05T07:23:27.452Z,1011.08
2022-11-05T07:24:27.469Z,1011.08
2022-11-05T07:25:27.488Z,1011.09
2022-11-05T07:26:33.357Z,1011.08
2022-11-05T07:27:27.526Z,1011.09
2022-11-05T07:28:27.542Z,1011.11
2022-11-05T07:29:27.572Z,1011.10
2022-11-05T07:30:27.673Z,1011.11
2022-11-05T07:31:27.604Z,1011.08
2022-11-05T07:32:27.621Z,1011.10
2022-11-05T07:33:30.121Z,1011.11
2022-11-05T07:34:27.661Z,1011.16
2022-11-05T07:35:27.680Z,1011.21
2022-11-05T07:36:27.714Z,1011.15
2022-11-05T07:37:27.738Z,1011.20
2022-11-05T07:38:27.737Z,1011.21
2022-11-05T07:39:27.760Z,1011.19
2022-11-05T07:40:27.857Z,1011.20
2022-11-05T07:41:27.795Z,1011.17
2022-11-05T07:42:27.842Z,1011.19
2022-11-05T07:43:27.834Z,1011.23
2022-11-05T07:44:27.855Z,1011.23
2022-11-05T07:45:27.873Z,1011.24
2022-11-05T07:46:27.893Z,1011.24
2022-11-05T07:47:27.911Z,1011.27
2022-11-05T07:48:27.932Z,1011.21
2022-11-05T07:49:27.956Z,1011.28
2022-11-05T07:50:28.030Z,1011.24
2022-11-05T07:51:27.991Z,1011.31
2022-11-05T07:52:28.008Z,1011.22
2022-11-05T07:53:28.029Z,1011.24
2022-11-05T07:54:28.047Z,1011.27
2022-11-05T07:55:28.064Z,1011.28
2022-11-05T07:56:28.088Z,1011.28
2022-11-05T07:57:28.110Z,1011.29
2022-11-05T07:58:28.126Z,1011.34
2022-11-05T07:59:28.149Z,1011.32
2022-11-05T08:00:28.164Z,1011.33
2022-11-05T08:01:28.392Z,1011.39
2022-11-05T08:02:28.540Z,1011.38
2022-11-05T08:03:28.362Z,1011.34
2022-11-05T08:04:28.249Z,1011.33
2022-11-05T08:05:28.262Z,1011.40
2022-11-05T08:06:28.284Z,1011.40
2022-11-05T08:07:28.304Z,1011.37
2022-11-05T08:08:28.321Z,1011.37
2022-11-05T08:09:28.350Z,1011.40
2022-11-05T08:10:28.362Z,1011.38
2022-11-05T08:11:28.389Z,1011.42
2022-11-05T08:12:28.409Z,1011.41
2022-11-05T08:13:28.429Z,1011.37
2022-11-05T08:14:28.446Z,1011.38
2022-11-05T08:15:28.478Z,1011.45
2022-11-05T08:16:28.517Z,1011.44
2022-11-05T08:17:28.504Z,1011.46
2022-11-05T08:18:28.562Z,1011.46
2022-11-05T08:19:28.580Z,1011.43
2022-11-05T08:20:28.579Z,1011.45
2022-11-05T08:21:28.586Z,1011.44
2022-11-05T08:22:28.622Z,1011.47
2022-11-05T08:23:28.655Z,1011.49
2022-11-05T08:24:28.681Z,1011.44
2022-11-05T08:25:28.666Z,1011.45
2022-11-05T08:26:28.695Z,1011.44
2022-11-05T08:27:28.737Z,1011.43
2022-11-05T08:28:28.752Z,1011.46
2022-11-05T08:29:28.827Z,1011.47
2022-11-05T08:30:28.772Z,1011.44
2022-11-05T08:31:28.777Z,1011.45
2022-11-05T08:32:28.796Z,1011.43
2022-11-05T08:33:28.818Z,1011.42
2022-11-05T08:34:28.843Z,1011.47
2022-11-05T08:35:28.861Z,1011.41
2022-11-05T08:36:28.877Z,1011.41
2022-11-05T08:37:28.909Z,1011.43
2022-11-05T08:38:36.086Z,1011.43
2022-11-05T08:40:22.391Z,1011.42
2022-11-05T08:41:21.859Z,1011.43
2022-11-05T08:43:25.864Z,1011.45
2022-11-05T08:44:25.894Z,1011.47
2022-11-05T08:46:30.366Z,1011.49
2022-11-05T08:47:29.897Z,1011.43
2022-11-05T08:49:33.911Z,1011.49
2022-11-05T08:50:33.922Z,1011.50
2022-11-05T08:52:38.421Z,1011.49
2022-11-05T08:53:37.956Z,1011.52
2022-11-05T08:55:41.956Z,1011.52
2022-11-05T08:56:41.964Z,1011.54
2022-11-05T08:58:46.456Z,1011.55
2022-11-05T08:59:45.989Z,1011.56
2022-11-05T09:01:50.266Z,1011.59
2022-11-05T09:02:50.012Z,1011.58
2022-11-05T09:04:54.528Z,1011.60
2022-11-05T09:05:54.042Z,1011.59
2022-11-05T09:08:01.331Z,1011.59
2022-11-05T09:08:58.071Z,1011.62
2022-11-05T09:10:51.545Z,1011.59
2022-11-05T09:12:11.194Z,1011.59
2022-11-05T09:13:44.156Z,1011.61
2022-11-05T09:14:44.165Z,1011.65
2022-11-05T09:16:48.659Z,1011.66
2022-11-05T09:17:48.193Z,1011.68
2022-11-05T09:19:52.206Z,1011.66
2022-11-05T09:20:52.225Z,1011.66
2022-11-05T09:22:56.709Z,1011.66
2022-11-05T09:23:56.239Z,1011.66
2022-11-05T09:26:00.718Z,1011.63
2022-11-05T09:27:00.261Z,1011.68
2022-11-05T09:29:04.754Z,1011.68
2022-11-05T09:30:04.291Z,1011.70
2022-11-05T09:32:08.294Z,1011.68
2022-11-05T09:33:08.513Z,1011.67
2022-11-05T09:35:12.796Z,1011.66
2022-11-05T09:36:12.333Z,1011.69
2022-11-05T09:38:16.370Z,1011.70
2022-11-05T09:39:16.375Z,1011.66
2022-11-05T09:41:09.841Z,1011.73
2022-11-05T09:42:09.325Z,1011.74
2022-11-05T09:44:13.324Z,1011.75
2022-11-05T09:45:13.339Z,1011.77
2022-11-05T09:47:18.830Z,1011.74
2022-11-05T09:48:18.378Z,1011.77
2022-11-05T09:50:22.424Z,1011.75
2022-11-05T09:51:24.114Z,1011.78
2022-11-05T09:53:26.882Z,1011.81
2022-11-05T09:54:26.419Z,1011.81
2022-11-05T09:56:30.433Z,1011.83
2022-11-05T09:57:30.442Z,1011.88
2022-11-05T09:59:34.932Z,1011.85
2022-11-05T10:00:34.464Z,1011.83
2022-11-05T10:02:38.584Z,1011.89
2022-11-05T10:03:38.496Z,1011.88
2022-11-05T10:05:32.041Z,1011.86
2022-11-05T10:06:31.636Z,1011.85
2022-11-05T10:08:35.677Z,1011.91
2022-11-05T10:09:35.678Z,1011.92
2022-11-05T10:11:40.176Z,1011.91
2022-11-05T10:12:39.704Z,1011.96
2022-11-05T10:14:43.721Z,1011.95
2022-11-05T10:15:43.740Z,1011.93
2022-11-05T10:17:48.224Z,1011.95
2022-11-05T10:18:47.763Z,1011.96
2022-11-05T10:20:40.729Z,1011.99
2022-11-05T10:23:45.203Z,1011.97
2022-11-05T10:24:44.730Z,1012.00
2022-11-05T10:26:48.749Z,1011.97
2022-11-05T10:27:48.776Z,1012.04
2022-11-05T10:29:53.246Z,1012.01
2022-11-05T10:30:52.776Z,1012.01
2022-11-05T10:32:56.795Z,1012.00
2022-11-05T10:33:56.806Z,1012.01
2022-11-05T10:36:01.291Z,1012.06
2022-11-05T10:37:00.823Z,1012.06
2022-11-05T10:39:04.834Z,1012.04
2022-11-05T10:40:04.853Z,1012.09
2022-11-05T10:42:09.339Z,1012.01
2022-11-05T10:43:09.088Z,1012.02
2022-11-05T10:45:12.882Z,1012.06
2022-11-05T10:46:12.905Z,1012.01
2022-11-05T10:48:17.395Z,1012.05
2022-11-05T10:49:16.934Z,1012.03
2022-11-05T10:51:09.876Z,1012.02
2022-11-05T10:52:09.888Z,1012.03
2022-11-05T10:54:14.376Z,1012.01
2022-11-05T10:55:13.913Z,1012.05
2022-11-05T10:57:17.955Z,1012.02
2022-11-05T10:58:17.956Z,1011.96
2022-11-05T11:00:22.439Z,1012.00
2022-11-05T11:01:22.049Z,1011.97
2022-11-05T11:03:25.993Z,1011.96
2022-11-05T11:04:26.031Z,1011.97
2022-11-05T11:06:30.492Z,1012.01
2022-11-05T11:07:30.034Z,1011.97
2022-11-05T11:09:34.042Z,1011.94
2022-11-05T11:10:34.055Z,1011.93
2022-11-05T11:12:41.020Z,1011.92
2022-11-05T11:13:38.081Z,1011.93
2022-11-05T11:15:42.104Z,1011.93
2022-11-05T11:16:42.117Z,1011.91
2022-11-05T11:18:46.606Z,1011.88
2022-11-05T11:19:46.151Z,1011.87
2022-11-05T11:21:50.184Z,1011.86
2022-11-05T11:22:50.193Z,1011.89
2022-11-05T11:24:54.685Z,1011.86
2022-11-05T11:25:54.220Z,1011.87
2022-11-05T11:27:58.234Z,1011.84
2022-11-05T11:28:58.258Z,1011.85
2022-11-05T11:30:51.721Z,1011.85
2022-11-05T11:31:51.195Z,1011.95
2022-11-05T11:33:55.203Z,1011.86
2022-11-05T11:34:55.219Z,1011.87
2022-11-05T11:36:59.720Z,1011.86
2022-11-05T11:37:59.244Z,1011.86
2022-11-05T11:40:03.261Z,1011.88
2022-11-05T11:41:03.280Z,1011.83
2022-11-05T11:43:07.767Z,1011.82
2022-11-05T11:44:07.294Z,1011.88
2022-11-05T11:46:15.002Z,1011.92
2022-11-05T11:47:11.329Z,1011.94
2022-11-05T11:49:15.825Z,1011.95
2022-11-05T11:50:15.381Z,1011.96
2022-11-05T11:52:19.383Z,1011.94
2022-11-05T11:53:19.398Z,1011.94
2022-11-05T11:55:23.885Z,1012.00
2022-11-05T11:56:23.420Z,1011.99
2022-11-05T11:58:16.552Z,1012.00
2022-11-05T11:59:16.569Z,1012.01
2022-11-05T12:01:10.044Z,1012.03
2022-11-05T12:02:09.618Z,1012.03
2022-11-05T12:04:13.533Z,1011.95
2022-11-05T12:05:13.545Z,1012.02
2022-11-05T12:07:18.043Z,1012.01
2022-11-05T12:08:17.575Z,1011.99
2022-11-05T12:10:22.169Z,1011.96
2022-11-05T12:11:21.793Z,1011.90
2022-11-05T12:13:26.286Z,1011.92
2022-11-05T12:14:25.823Z,1011.89
2022-11-05T12:16:18.957Z,1011.91
2022-11-05T12:17:18.965Z,1011.91
2022-11-05T12:19:23.467Z,1011.87
2022-11-05T12:20:23.016Z,1011.91
2022-11-05T12:22:27.028Z,1011.91
2022-11-05T12:23:27.041Z,1011.90
2022-11-05T12:25:31.537Z,1011.91
2022-11-05T12:26:31.085Z,1011.90
2022-11-05T12:28:36.234Z,1011.87
2022-11-05T12:29:36.129Z,1011.86
2022-11-05T12:31:39.601Z,1011.87
2022-11-05T12:32:39.176Z,1011.83
2022-11-05T12:34:43.258Z,1011.85
2022-11-05T12:35:48.078Z,1011.86
2022-11-05T12:37:47.734Z,1011.84
2022-11-05T12:38:47.256Z,1011.85
2022-11-05T12:40:40.319Z,1011.84
2022-11-05T12:41:40.335Z,1011.83
2022-11-05T12:43:34.768Z,1011.74
2022-11-05T12:44:34.468Z,1011.76
2022-11-05T12:46:38.512Z,1011.74
2022-11-05T12:47:38.514Z,1011.73
2022-11-05T12:49:43.021Z,1011.74
2022-11-05T12:50:42.561Z,1011.75
2022-11-05T12:51:42.573Z,1011.73
2022-11-05T12:52:42.603Z,1011.71
2022-11-05T12:53:42.642Z,1011.76
2022-11-05T12:54:42.644Z,1011.70
2022-11-05T12:55:48.097Z,1011.72
2022-11-05T12:56:42.691Z,1011.69
2022-11-05T12:57:42.719Z,1011.71
2022-11-05T12:58:42.775Z,1011.70
2022-11-05T12:59:42.757Z,1011.67
2022-11-05T13:00:42.788Z,1011.66
2022-11-05T13:01:42.949Z,1011.67
2022-11-05T13:02:42.868Z,1011.71
2022-11-05T13:03:42.857Z,1011.70
2022-11-05T13:04:42.893Z,1011.71
2022-11-05T13:05:42.905Z,1011.73
2022-11-05T13:06:42.969Z,1011.69
2022-11-05T13:07:42.946Z,1011.69
2022-11-05T13:08:43.004Z,1011.69
2022-11-05T13:09:43.042Z,1011.68
2022-11-05T13:10:43.013Z,1011.70
2022-11-05T13:11:43.038Z,1011.68
2022-11-05T13:12:43.060Z,1011.69
2022-11-05T13:13:43.081Z,1011.66
2022-11-05T13:14:43.107Z,1011.69
2022-11-05T13:15:43.132Z,1011.68
2022-11-05T13:16:43.150Z,1011.71
2022-11-05T13:17:43.178Z,1011.70
2022-11-05T13:18:43.203Z,1011.72
2022-11-05T13:19:43.224Z,1011.68
2022-11-05T13:20:43.247Z,1011.71
2022-11-05T13:21:43.269Z,1011.71
2022-11-05T13:22:43.289Z,1011.66
2022-11-05T13:23:43.316Z,1011.67
2022-11-05T13:24:43.340Z,1011.66
2022-11-05T13:25:43.454Z,1011.67
2022-11-05T13:26:43.390Z,1011.65
2022-11-05T13:27:43.408Z,1011.65
2022-11-05T13:28:43.434Z,1011.64
2022-11-05T13:29:43.455Z,1011.60
2022-11-05T13:30:43.477Z,1011.61
2022-11-05T13:31:43.502Z,1011.58
2022-11-05T13:32:43.522Z,1011.61
2022-11-05T13:33:43.545Z,1011.55
2022-11-05T13:34:43.571Z,1011.55
2022-11-05T13:35:43.627Z,1011.55
2022-11-05T13:36:43.621Z,1011.55
2022-11-05T13:37:43.638Z,1011.48
2022-11-05T13:38:43.667Z,1011.48
2022-11-05T13:39:43.691Z,1011.50
2022-11-05T13:40:43.716Z,1011.50
2022-11-05T13:41:43.738Z,1011.52
2022-11-05T13:42:43.758Z,1011.52
2022-11-05T13:43:43.780Z,1011.48
2022-11-05T13:44:43.800Z,1011.49
2022-11-05T13:45:43.857Z,1011.50
2022-11-05T13:46:43.850Z,1011.50
2022-11-05T13:47:43.876Z,1011.48
2022-11-05T13:48:43.898Z,1011.52
2022-11-05T13:53:10.104Z,1011.50
2022-11-05T13:54:09.375Z,1011.48
2022-11-05T13:56:13.395Z,1011.52
2022-11-05T13:57:13.413Z,1011.49
2022-11-05T14:01:04.030Z,1011.51
2022-11-05T14:02:00.243Z,1011.53
2022-11-05T14:04:04.161Z,1011.55
2022-11-05T14:05:04.172Z,1011.55
2022-11-05T14:07:08.664Z,1011.53
2022-11-05T14:08:08.192Z,1011.54
2022-11-05T14:10:12.215Z,1011.49
2022-11-05T14:11:12.226Z,1011.51
2022-11-05T14:13:16.738Z,1011.56
2022-11-05T14:14:16.270Z,1011.49
2022-11-05T14:16:20.281Z,1011.53
2022-11-05T14:17:20.293Z,1011.59
2022-11-05T14:19:24.789Z,1011.54
2022-11-05T14:20:24.327Z,1011.54
2022-11-05T14:22:28.340Z,1011.45
2022-11-05T14:23:28.357Z,1011.42
2022-11-05T14:25:32.850Z,1011.40
2022-11-05T14:26:32.392Z,1011.44
2022-11-05T14:28:36.427Z,1011.47
2022-11-05T14:29:36.410Z,1011.46
2022-11-05T14:32:07.647Z,1011.46
2022-11-05T14:32:40.442Z,1011.45
2022-11-05T14:34:44.461Z,1011.45
2022-11-05T14:35:44.484Z,1011.42
2022-11-05T14:37:48.967Z,1011.38
2022-11-05T14:38:48.507Z,1011.39
2022-11-05T14:40:41.445Z,1011.43
2022-11-05T14:41:41.456Z,1011.42
2022-11-05T14:43:34.960Z,1011.38
2022-11-05T14:44:34.602Z,1011.36
2022-11-05T14:46:38.622Z,1011.34
2022-11-05T14:47:38.640Z,1011.36
2022-11-05T14:49:43.129Z,1011.29
2022-11-05T14:50:42.699Z,1011.30
2022-11-05T14:52:46.688Z,1011.30
2022-11-05T14:53:46.703Z,1011.32